Time;durP1;ratioP1;P1;durP2;ratioP2;P2;SDS_P1;SDS_P2;PMS_P1;PMS_P2;Temp;Humidity;BMP_temperature;BMP_pressure;BME280_temperature;BME280_humidity;BME280_pressure;Samples;Min_cycle;Max_cycle;Signal;HPM_P1;HPM_P2
2022/04/10 00:00:45;;;;;;;5.85;2.83;;;2.80;99.90;;;;;;5035118;28;20033;-74
2022/04/10 00:03:11;;;;;;;4.47;2.30;;;2.80;99.90;;;;;;5035302;28;20026;-75
2022/04/10 00:05:37;;;;;;;10.55;2.88;;;2.80;99.90;;;;;;5034367;28;20029;-75
2022/04/10 00:08:02;;;;;;;8.02;3.00;;;2.80;99.90;;;;;;5035198;28;20095;-75
2022/04/10 00:10:28;;;;;;;5.55;2.95;;;2.80;99.90;;;;;;5034766;28;20413;-74
2022/04/10 00:12:54;;;;;;;6.88;2.60;;;2.80;99.90;;;;;;5035160;28;20418;-75
2022/04/10 00:15:20;;;;;;;7.00;3.20;;;2.90;99.90;;;;;;5034777;28;20028;-72
2022/04/10 00:17:46;;;;;;;9.05;3.28;;;2.90;99.90;;;;;;5034691;28;20037;-74
2022/04/10 00:20:12;;;;;;;5.13;2.42;;;3.00;99.90;;;;;;5034664;28;20485;-75
2022/04/10 00:22:42;;;;;;;5.25;2.50;;;3.00;99.90;;;;;;5034071;28;20037;-74
2022/04/10 00:25:09;;;;;;;6.95;2.50;;;3.00;99.90;;;;;;5035163;28;20036;-74
2022/04/10 00:27:34;;;;;;;5.32;3.00;;;3.00;99.90;;;;;;5033951;28;20034;-73
2022/04/10 00:30:00;;;;;;;7.22;2.85;;;3.00;99.90;;;;;;5034988;28;20486;-75
2022/04/10 00:32:29;;;;;;;5.88;3.63;;;3.00;99.90;;;;;;5034189;28;20025;-73
2022/04/10 00:34:54;;;;;;;6.25;3.08;;;3.00;99.90;;;;;;5034624;28;20033;-73
2022/04/10 00:37:20;;;;;;;8.75;3.50;;;2.90;99.90;;;;;;5034464;28;20079;-72
2022/04/10 00:39:46;;;;;;;8.13;3.22;;;2.90;99.90;;;;;;5034062;28;20420;-74
2022/04/10 00:42:12;;;;;;;10.52;3.58;;;2.90;99.90;;;;;;5034820;28;20478;-74
2022/04/10 00:44:37;;;;;;;8.32;3.10;;;2.90;99.90;;;;;;5033975;28;20068;-74
2022/04/10 00:47:04;;;;;;;5.13;2.95;;;2.90;99.90;;;;;;5053790;28;20036;-74
2022/04/10 00:49:30;;;;;;;10.30;3.30;;;2.80;99.90;;;;;;5053555;28;20025;-72
2022/04/10 00:51:56;;;;;;;8.50;3.20;;;2.80;99.90;;;;;;5054019;28;20025;-73
2022/04/10 00:54:26;;;;;;;6.15;2.95;;;2.70;99.90;;;;;;5054812;28;20398;-71
2022/04/10 00:56:56;;;;;;;5.38;2.78;;;2.70;99.90;;;;;;5055358;28;20037;-74
2022/04/10 00:59:21;;;;;;;5.00;3.28;;;2.70;99.90;;;;;;5058183;28;20036;-71
2022/04/10 01:01:47;;;;;;;4.63;2.70;;;2.70;99.90;;;;;;5058771;28;20033;-73
2022/04/10 01:04:14;;;;;;;8.25;3.42;;;2.70;99.90;;;;;;5057971;28;20428;-73
2022/04/10 01:06:40;;;;;;;9.90;3.10;;;2.70;99.90;;;;;;5065215;28;20033;-74
2022/04/10 01:09:07;;;;;;;7.15;3.08;;;2.60;99.90;;;;;;5065268;28;20025;-74
2022/04/10 01:11:34;;;;;;;10.88;3.22;;;2.60;99.90;;;;;;5053052;28;20044;-72
2022/04/10 01:14:00;;;;;;;7.60;3.65;;;2.60;99.90;;;;;;5054350;28;20052;-73
2022/04/10 01:16:28;;;;;;;10.23;3.10;;;2.60;99.90;;;;;;5053187;28;20072;-73
2022/04/10 01:18:55;;;;;;;6.90;3.50;;;2.60;99.90;;;;;;5053919;28;20032;-73
2022/04/10 01:21:25;;;;;;;10.60;3.42;;;2.50;99.90;;;;;;5053559;28;20025;-71
2022/04/10 01:23:52;;;;;;;;;;;2.50;99.90;;;;;;5053328;28;20514;-74
2022/04/10 01:26:18;;;;;;;5.65;2.65;;;2.50;99.90;;;;;;5053923;28;19904;-73
2022/04/10 01:29:00;;;;;;;5.40;3.05;;;2.40;99.90;;;;;;5053245;28;20029;-74
2022/04/10 01:31:29;;;;;;;6.68;3.00;;;2.50;99.90;;;;;;5053162;28;20116;-74
2022/04/10 01:33:58;;;;;;;5.65;3.08;;;2.50;99.90;;;;;;5052822;28;20374;-74
2022/04/10 01:36:29;;;;;;;7.28;3.40;;;2.60;99.90;;;;;;5052937;28;20118;-71
2022/04/10 01:38:56;;;;;;;6.65;3.20;;;2.70;99.90;;;;;;5053520;28;20033;-74
2022/04/10 01:41:25;;;;;;;5.72;2.42;;;2.70;99.90;;;;;;5055086;28;20045;-71
2022/04/10 01:43:52;;;;;;;6.00;3.30;;;2.70;99.90;;;;;;5055397;28;20032;-75
2022/04/10 01:46:18;;;;;;;6.45;3.03;;;2.70;99.90;;;;;;5042035;28;20040;-74
2022/04/10 01:48:44;;;;;;;7.57;3.22;;;2.70;99.90;;;;;;5033443;28;20083;-73
2022/04/10 01:51:11;;;;;;;6.40;3.58;;;2.70;99.90;;;;;;5034064;28;20021;-74
2022/04/10 01:53:37;;;;;;;8.55;3.20;;;2.70;99.90;;;;;;5032826;28;20046;-73
2022/04/10 01:56:04;;;;;;;5.60;3.38;;;2.70;99.90;;;;;;5033087;28;20124;-73
2022/04/10 01:58:30;;;;;;;4.32;2.92;;;2.70;99.90;;;;;;5031712;28;20076;-73
2022/04/10 02:00:56;;;;;;;5.88;3.58;;;2.60;99.90;;;;;;5032716;28;20041;-73
2022/04/10 02:03:22;;;;;;;7.78;3.30;;;2.60;99.90;;;;;;5033024;28;20462;-71
2022/04/10 02:05:47;;;;;;;7.35;3.53;;;2.50;99.90;;;;;;5032474;28;20091;-73
2022/04/10 02:08:13;;;;;;;6.35;3.67;;;2.50;99.90;;;;;;5032733;28;20084;-74
2022/04/10 02:10:39;;;;;;;6.95;4.32;;;2.50;99.90;;;;;;5014661;28;20018;-73
2022/04/10 02:13:07;;;;;;;6.60;3.70;;;2.40;99.90;;;;;;5033022;28;20057;-73
2022/04/10 02:15:38;;;;;;;7.88;3.58;;;2.40;99.90;;;;;;5032139;28;20030;-73
2022/04/10 02:18:04;;;;;;;7.47;3.58;;;2.40;99.90;;;;;;5033232;28;20030;-73
2022/04/10 02:20:30;;;;;;;7.22;3.92;;;2.40;99.90;;;;;;5032101;28;20017;-73
2022/04/10 02:22:55;;;;;;;8.18;3.90;;;2.40;99.90;;;;;;5032287;28;20031;-73
2022/04/10 02:25:21;;;;;;;7.13;3.88;;;2.40;99.90;;;;;;5032972;28;20044;-73
2022/04/10 02:27:47;;;;;;;5.95;3.30;;;2.40;99.90;;;;;;5032141;28;20054;-74
2022/04/10 02:30:13;;;;;;;8.57;4.38;;;2.40;99.90;;;;;;5032423;28;20463;-73
2022/04/10 02:32:41;;;;;;;5.47;3.28;;;2.30;99.90;;;;;;5031682;28;20029;-73
2022/04/10 02:35:08;;;;;;;6.03;4.15;;;2.30;99.90;;;;;;5032605;28;20030;-73
2022/04/10 02:37:34;;;;;;;7.90;3.55;;;2.30;99.90;;;;;;5031482;28;20056;-72
2022/04/10 02:40:00;;;;;;;5.68;3.42;;;2.30;99.90;;;;;;5015038;28;20120;-73
2022/04/10 02:42:27;;;;;;;7.72;3.30;;;2.10;99.90;;;;;;5031947;28;20160;-71
2022/04/10 02:44:53;;;;;;;7.78;3.85;;;2.10;99.90;;;;;;5033484;28;20037;-73
2022/04/10 02:47:20;;;;;;;4.82;3.67;;;2.00;99.90;;;;;;5055661;28;20033;-73
2022/04/10 02:49:45;;;;;;;5.13;3.20;;;2.00;99.90;;;;;;5051603;28;20016;-73
2022/04/10 02:52:11;;;;;;;7.43;3.70;;;2.00;99.90;;;;;;5051988;28;20047;-73
2022/04/10 02:54:37;;;;;;;6.72;4.20;;;1.90;99.90;;;;;;5048966;28;20118;-72
2022/04/10 02:57:03;;;;;;;6.03;3.45;;;2.10;99.90;;;;;;5052295;28;20036;-72
2022/04/10 02:59:28;;;;;;;10.73;3.88;;;1.90;99.90;;;;;;5051274;28;20033;-71
2022/04/10 03:01:54;;;;;;;5.65;3.78;;;1.90;99.90;;;;;;5052124;28;20090;-73
2022/04/10 03:04:20;;;;;;;9.60;3.90;;;2.00;99.90;;;;;;5052204;28;20116;-73
2022/04/10 03:06:45;;;;;;;8.63;3.90;;;1.80;99.90;;;;;;5051053;28;20021;-73
2022/04/10 03:09:11;;;;;;;9.70;4.45;;;1.80;99.90;;;;;;5051986;28;20086;-73
2022/04/10 03:11:37;;;;;;;6.70;4.53;;;1.80;99.90;;;;;;5050888;28;20108;-73
2022/04/10 03:14:03;;;;;;;7.28;3.97;;;1.80;99.90;;;;;;5050530;28;20451;-73
2022/04/10 03:16:28;;;;;;;9.98;5.15;;;1.80;99.90;;;;;;5051198;28;20041;-72
2022/04/10 03:18:54;;;;;;;7.97;4.63;;;1.70;99.90;;;;;;5051886;28;20045;-73
2022/04/10 03:21:20;;;;;;;7.65;4.10;;;1.70;99.90;;;;;;5051840;28;20516;-73
2022/04/10 03:23:46;;;;;;;6.00;4.32;;;1.70;99.90;;;;;;5050527;28;20025;-74
2022/04/10 03:26:11;;;;;;;6.28;4.03;;;1.70;99.90;;;;;;5051877;28;20062;-74
2022/04/10 03:28:37;;;;;;;6.07;4.10;;;1.60;99.90;;;;;;5050893;28;20387;-74
2022/04/10 03:31:02;;;;;;;6.28;4.00;;;1.60;99.90;;;;;;5051823;28;20029;-73
2022/04/10 03:33:28;;;;;;;12.02;4.80;;;1.60;99.90;;;;;;5051276;28;20493;-72
2022/04/10 03:35:54;;;;;;;6.03;4.40;;;1.50;99.90;;;;;;5050470;28;20021;-73
2022/04/10 03:38:20;;;;;;;7.10;4.40;;;1.50;99.90;;;;;;5051628;28;20029;-73
2022/04/10 03:40:46;;;;;;;9.23;4.40;;;1.50;99.90;;;;;;5050779;28;20025;-73
2022/04/10 03:43:12;;;;;;;11.60;4.95;;;1.50;99.90;;;;;;5051360;28;20087;-73
2022/04/10 03:45:39;;;;;;;8.57;4.63;;;1.60;99.90;;;;;;5043749;28;20025;-73
2022/04/10 03:48:06;;;;;;;6.50;4.80;;;1.50;99.90;;;;;;5031638;28;20030;-73
2022/04/10 03:50:33;;;;;;;8.05;4.95;;;1.50;99.90;;;;;;5030986;28;20160;-73
2022/04/10 03:53:00;;;;;;;8.48;4.32;;;1.40;99.90;;;;;;5031243;28;20053;-73
2022/04/10 03:55:27;;;;;;;10.70;4.78;;;1.50;99.90;;;;;;5031174;28;20033;-71
2022/04/10 03:57:52;;;;;;;8.27;4.47;;;1.50;99.90;;;;;;5031094;28;20034;-73
2022/04/10 04:00:19;;;;;;;8.85;4.47;;;1.40;99.90;;;;;;5031608;28;20032;-73
2022/04/10 04:02:45;;;;;;;7.40;5.20;;;1.50;99.90;;;;;;5030702;28;20029;-73
2022/04/10 04:05:11;;;;;;;5.88;4.63;;;1.40;99.90;;;;;;5031633;28;20022;-73
2022/04/10 04:07:38;;;;;;;13.02;5.05;;;1.30;99.90;;;;;;5030423;28;20105;-73
2022/04/10 04:10:05;;;;;;;8.77;5.07;;;1.30;99.90;;;;;;5031357;28;20084;-73
2022/04/10 04:12:31;;;;;;;10.93;5.88;;;1.30;99.90;;;;;;5030712;28;20032;-72
2022/04/10 04:14:57;;;;;;;11.15;6.25;;;1.30;99.90;;;;;;5031415;28;20068;-73
2022/04/10 04:17:22;;;;;;;8.77;5.00;;;1.30;99.90;;;;;;5031548;28;20486;-73
2022/04/10 04:19:50;;;;;;;11.75;5.60;;;1.30;99.90;;;;;;5030285;28;20022;-73
2022/04/10 04:22:18;;;;;;;11.20;5.03;;;1.40;99.90;;;;;;5031363;28;20057;-73
2022/04/10 04:24:44;;;;;;;7.85;4.78;;;1.40;99.90;;;;;;5032234;28;20372;-73
2022/04/10 04:27:10;;;;;;;8.80;4.40;;;1.50;99.90;;;;;;5034940;28;20087;-73
2022/04/10 04:29:36;;;;;;;11.38;5.18;;;1.50;99.90;;;;;;5034124;28;20048;-73
2022/04/10 04:32:02;;;;;;;7.28;5.13;;;1.60;99.90;;;;;;5034925;28;20033;-73
2022/04/10 04:34:28;;;;;;;9.32;5.38;;;1.60;99.90;;;;;;5034346;28;20034;-71
2022/04/10 04:36:54;;;;;;;7.32;4.78;;;1.70;99.90;;;;;;5016878;28;20032;-74
2022/04/10 04:39:19;;;;;;;8.73;5.72;;;1.80;99.90;;;;;;5035204;28;20482;-73
2022/04/10 04:41:45;;;;;;;8.43;5.10;;;1.80;99.90;;;;;;5035185;28;20029;-74
2022/04/10 04:44:11;;;;;;;8.57;5.07;;;1.80;99.90;;;;;;5037012;28;20037;-74
2022/04/10 04:46:37;;;;;;;7.05;4.70;;;1.90;99.90;;;;;;5052511;28;20432;-74
2022/04/10 04:49:03;;;;;;;8.18;5.00;;;1.90;99.90;;;;;;5059876;28;20039;-74
2022/04/10 04:51:29;;;;;;;7.82;4.88;;;2.00;99.90;;;;;;5049784;28;20027;-72
2022/04/10 04:53:55;;;;;;;9.68;5.72;;;2.00;99.90;;;;;;5062503;28;20482;-73
2022/04/10 04:56:21;;;;;;;8.80;4.60;;;2.10;99.90;;;;;;5054524;28;20033;-73
2022/04/10 04:58:50;;;;;;;10.60;5.45;;;2.10;99.90;;;;;;5053508;28;20040;-74
2022/04/10 05:01:15;;;;;;;7.35;4.90;;;2.20;99.90;;;;;;5050761;28;20026;-74
2022/04/10 05:03:41;;;;;;;9.63;5.15;;;2.20;99.90;;;;;;5037124;28;20031;-74
2022/04/10 05:06:06;;;;;;;8.15;5.30;;;2.30;99.90;;;;;;5035933;28;20478;-74
2022/04/10 05:08:32;;;;;;;9.20;5.28;;;2.30;99.90;;;;;;5038377;28;20112;-76
2022/04/10 05:10:59;;;;;;;9.85;5.40;;;2.40;99.90;;;;;;5042874;28;20022;-75
2022/04/10 05:13:26;;;;;;;10.50;5.53;;;2.40;99.90;;;;;;5046705;28;20064;-76
2022/04/10 05:15:52;;;;;;;7.28;5.03;;;2.50;99.90;;;;;;5041505;28;20036;-76
2022/04/10 05:18:19;;;;;;;7.78;4.75;;;2.50;99.90;;;;;;5044550;28;20025;-76
2022/04/10 05:20:45;;;;;;;7.25;4.85;;;2.50;99.90;;;;;;5041944;28;20028;-76
2022/04/10 05:23:14;;;;;;;9.45;5.03;;;2.60;99.90;;;;;;5041133;28;20017;-78
2022/04/10 05:25:40;;;;;;;8.45;5.10;;;2.60;99.90;;;;;;5034601;28;20025;-75
2022/04/10 05:28:06;;;;;;;10.25;5.43;;;2.70;99.90;;;;;;5033527;28;20021;-76
2022/04/10 05:30:31;;;;;;;7.32;5.22;;;2.70;99.90;;;;;;5032709;28;20033;-72
2022/04/10 05:32:57;;;;;;;8.48;4.68;;;2.80;99.90;;;;;;5033571;28;20482;-76
2022/04/10 05:35:23;;;;;;;6.53;4.50;;;2.90;99.90;;;;;;5031489;28;20033;-76
2022/04/10 05:37:48;;;;;;;9.60;4.82;;;2.90;99.90;;;;;;5032800;28;20083;-77
2022/04/10 05:40:14;;;;;;;9.45;4.43;;;3.00;99.90;;;;;;5033680;28;20026;-77
2022/04/10 05:42:46;;;;;;;7.30;4.60;;;3.10;99.90;;;;;;5032815;28;20108;-76
2022/04/10 05:45:12;;;;;;;7.65;5.38;;;3.10;99.90;;;;;;5035639;28;20021;-77
2022/04/10 05:47:39;;;;;;;7.57;4.70;;;3.10;99.90;;;;;;5053105;28;20443;-79
2022/04/10 05:50:06;;;;;;;5.28;4.43;;;3.20;99.90;;;;;;5053430;28;20033;-76
2022/04/10 05:52:40;;;;;;;8.40;4.78;;;3.20;99.90;;;;;;5054965;28;20033;-73
2022/04/10 05:55:07;;;;;;;8.82;4.80;;;3.30;99.90;;;;;;5054082;28;20028;-75
2022/04/10 05:57:33;;;;;;;7.93;4.20;;;3.30;99.90;;;;;;5052422;28;20159;-73
2022/04/10 05:59:58;;;;;;;8.88;4.82;;;3.30;99.90;;;;;;5054497;28;20075;-75
2022/04/10 06:02:24;;;;;;;10.23;4.50;;;3.30;99.90;;;;;;5053526;28;20033;-76
2022/04/10 06:04:49;;;;;;;7.05;4.53;;;3.30;99.90;;;;;;5053084;28;20025;-75
2022/04/10 06:07:15;;;;;;;8.13;4.72;;;3.30;99.90;;;;;;5052942;28;20036;-76
2022/04/10 06:09:41;;;;;;;7.80;4.70;;;3.40;99.90;;;;;;5052294;28;20033;-75
2022/04/10 06:12:07;;;;;;;8.63;4.78;;;3.60;99.90;;;;;;5053148;28;20032;-76
2022/04/10 06:14:33;;;;;;;5.78;3.88;;;3.70;99.90;;;;;;5052193;28;20417;-73
2022/04/10 06:16:58;;;;;;;11.27;4.00;;;4.00;99.90;;;;;;5052807;28;20029;-76
2022/04/10 06:19:24;;;;;;;6.85;3.97;;;4.30;99.90;;;;;;5052829;28;20382;-77
2022/04/10 06:21:50;;;;;;;8.85;4.32;;;4.40;99.90;;;;;;5049486;28;20033;-76
2022/04/10 06:24:15;;;;;;;6.30;3.72;;;4.50;99.90;;;;;;5043553;28;20035;-75
2022/04/10 06:26:43;;;;;;;4.93;3.97;;;4.70;99.90;;;;;;5040248;28;20056;-77
2022/04/10 06:29:09;;;;;;;7.90;3.80;;;4.80;99.90;;;;;;5040524;28;20056;-76
2022/04/10 06:31:35;;;;;;;4.13;3.47;;;4.90;99.90;;;;;;5042457;28;20498;-73
2022/04/10 06:34:01;;;;;;;7.50;3.35;;;5.10;99.90;;;;;;5041625;28;20451;-76
2022/04/10 06:36:27;;;;;;;7.40;3.55;;;5.30;99.90;;;;;;5042126;28;20024;-82
2022/04/10 06:38:52;;;;;;;9.75;3.20;;;5.40;99.90;;;;;;5048292;28;20041;-83
2022/04/10 06:41:18;;;;;;;6.75;3.45;;;5.60;99.90;;;;;;5045349;28;20026;-75
2022/04/10 06:43:44;;;;;;;5.30;2.90;;;5.70;99.90;;;;;;5041103;28;20029;-73
2022/04/10 06:46:09;;;;;;;9.05;4.00;;;5.90;99.90;;;;;;5040617;28;20057;-74
2022/04/10 06:48:35;;;;;;;9.13;4.38;;;6.10;99.90;;;;;;5040283;28;20033;-76
2022/04/10 06:51:03;;;;;;;5.97;3.63;;;6.20;99.90;;;;;;5040120;28;20032;-75
2022/04/10 06:53:28;;;;;;;5.38;3.33;;;6.30;99.90;;;;;;5041727;28;20045;-73
2022/04/10 06:55:54;;;;;;;6.03;3.97;;;6.30;99.90;;;;;;5039308;28;20715;-73
2022/04/10 06:58:22;;;;;;;8.18;4.15;;;6.30;99.90;;;;;;5037872;28;20029;-75
2022/04/10 07:00:52;;;;;;;9.32;4.10;;;6.40;99.90;;;;;;5031465;28;20106;-76
2022/04/10 07:03:18;;;;;;;6.82;3.63;;;6.40;99.90;;;;;;5032280;28;20028;-76
2022/04/10 07:05:44;;;;;;;5.38;3.60;;;6.50;99.90;;;;;;5031359;28;20034;-75
2022/04/10 07:08:10;;;;;;;5.95;3.97;;;6.50;99.90;;;;;;5031712;28;20434;-75
2022/04/10 07:10:38;;;;;;;5.13;3.13;;;6.60;99.90;;;;;;5039292;28;20045;-72
2022/04/10 07:13:04;;;;;;;6.18;3.30;;;6.70;99.90;;;;;;5023449;28;20025;-74
2022/04/10 07:15:30;;;;;;;5.35;3.38;;;6.80;99.90;;;;;;5040986;28;20025;-73
2022/04/10 07:17:57;;;;;;;5.63;3.05;;;6.80;99.90;;;;;;5041200;28;20096;-72
2022/04/10 07:20:26;;;;;;;6.40;3.50;;;7.00;99.90;;;;;;5040814;28;20430;-70
2022/04/10 07:25:36;;;;;;;6.05;3.00;;;7.30;99.90;;;;;;5051172;28;20047;-71
2022/04/10 07:28:02;;;;;;;6.25;3.75;;;7.40;99.90;;;;;;5033848;28;20033;-71
2022/04/10 07:30:27;;;;;;;7.68;3.28;;;7.60;99.90;;;;;;5051427;28;20116;-72
2022/04/10 07:32:54;;;;;;;6.88;3.30;;;7.70;99.90;;;;;;5038507;28;20415;-81
2022/04/10 07:35:27;;;;;;;6.65;3.53;;;7.90;99.90;;;;;;5032866;28;20083;-82
2022/04/10 07:37:52;;;;;;;5.03;3.47;;;8.10;99.90;;;;;;5031936;28;20087;-76
2022/04/10 07:40:19;;;;;;;7.40;3.55;;;8.20;99.90;;;;;;5031984;28;20456;-75
2022/04/10 07:42:45;;;;;;;5.50;3.10;;;8.20;99.90;;;;;;5031217;28;20478;-75
2022/04/10 07:47:57;;;;;;;4.93;3.03;;;8.10;99.90;;;;;;5051785;28;20097;-81
2022/04/10 07:50:23;;;;;;;6.95;3.00;;;8.00;97.20;;;;;;5019646;28;20029;-80
2022/04/10 07:52:48;;;;;;;5.05;3.05;;;8.00;96.30;;;;;;5050720;28;20053;-80
2022/04/10 07:55:14;;;;;;;6.68;2.97;;;8.00;96.60;;;;;;5051581;28;20040;-76
2022/04/10 07:57:39;;;;;;;9.88;3.58;;;8.10;96.90;;;;;;5049035;28;20029;-79
2022/04/10 08:00:06;;;;;;;6.57;3.10;;;8.20;95.70;;;;;;5053950;28;20039;-77
2022/04/10 08:02:32;;;;;;;7.00;3.92;;;8.20;96.30;;;;;;5047889;28;20482;-78
2022/04/10 08:04:57;;;;;;;9.70;4.05;;;8.30;96.30;;;;;;5034625;28;20101;-76
2022/04/10 08:07:23;;;;;;;5.78;3.42;;;8.20;94.90;;;;;;5034866;28;20155;-79
2022/04/10 08:09:49;;;;;;;4.63;3.28;;;8.20;95.10;;;;;;5034076;28;20029;-79
2022/04/10 08:12:15;;;;;;;6.40;3.53;;;8.10;95.00;;;;;;5035390;28;20018;-76
2022/04/10 08:14:41;;;;;;;8.00;3.47;;;8.20;95.20;;;;;;5034326;28;20025;-81
2022/04/10 08:17:11;;;;;;;7.28;3.35;;;8.30;93.40;;;;;;5034992;28;20475;-75
2022/04/10 08:19:37;;;;;;;7.72;3.35;;;8.40;93.40;;;;;;5034854;28;20116;-73
2022/04/10 08:22:03;;;;;;;5.80;3.28;;;8.50;93.30;;;;;;5036421;28;20525;-78
2022/04/10 08:24:29;;;;;;;6.40;3.33;;;8.60;94.10;;;;;;5039923;28;20060;-80
2022/04/10 08:26:54;;;;;;;6.50;3.50;;;8.50;93.70;;;;;;5053418;28;20029;-80
2022/04/10 08:29:20;;;;;;;9.02;3.88;;;8.60;94.20;;;;;;5056484;28;20024;-80
2022/04/10 08:31:46;;;;;;;6.03;3.92;;;8.70;93.70;;;;;;5056674;28;20009;-78
2022/04/10 08:34:11;;;;;;;4.93;3.47;;;8.80;92.00;;;;;;5077412;28;20028;-77
2022/04/10 08:36:37;;;;;;;6.55;3.53;;;8.80;91.30;;;;;;5078284;28;20040;-75
2022/04/10 08:39:03;;;;;;;5.93;3.45;;;9.00;99.90;;;;;;5074511;28;20051;-85
2022/04/10 08:41:32;;;;;;;6.32;3.60;;;9.10;99.90;;;;;;5058131;28;20032;-82
2022/04/10 08:44:01;;;;;;;5.70;3.37;;;;;;;;;;5054497;28;20121;-82
2022/04/10 08:46:30;;;;;;;7.38;3.08;;;;;;;;;;5040465;28;20545;-76
2022/04/10 08:48:58;;;;;;;6.28;3.75;;;9.40;99.90;;;;;;5033977;28;20040;-77
2022/04/10 08:51:25;;;;;;;8.13;3.70;;;9.50;99.90;;;;;;5034322;28;20052;-77
2022/04/10 08:53:57;;;;;;;6.18;3.28;;;;;;;;;;5033346;28;20120;-77
2022/04/10 08:56:23;;;;;;;7.38;3.72;;;9.40;99.90;;;;;;5034418;28;20070;-80
2022/04/10 08:58:52;;;;;;;9.90;3.67;;;9.40;99.90;;;;;;5033914;28;20065;-85
2022/04/10 09:01:19;;;;;;;8.75;4.13;;;9.50;99.90;;;;;;5037547;28;20031;-82
2022/04/10 09:03:46;;;;;;;8.55;3.80;;;9.40;99.90;;;;;;5035333;28;20521;-77
2022/04/10 09:06:12;;;;;;;8.13;3.53;;;9.30;99.90;;;;;;5044312;28;20095;-76
2022/04/10 09:08:38;;;;;;;7.85;3.22;;;9.30;99.90;;;;;;5038361;28;20057;-72
2022/04/10 09:11:08;;;;;;;8.13;2.92;;;9.30;99.90;;;;;;5034125;28;20040;-81
2022/04/10 09:13:40;;;;;;;11.90;3.90;;;9.40;99.90;;;;;;5039792;28;20420;-73
2022/04/10 09:16:23;;;;;;;9.32;3.47;;;9.50;99.90;;;;;;5038637;28;20037;-77
2022/04/10 09:18:54;;;;;;;6.88;3.42;;;9.50;99.90;;;;;;5033570;28;20040;-78
2022/04/10 09:21:40;;;;;;;6.70;3.17;;;9.60;99.90;;;;;;5033083;28;20119;-76
2022/04/10 09:24:10;;;;;;;7.78;3.25;;;9.70;99.90;;;;;;5033657;28;20120;-78
2022/04/10 09:26:42;;;;;;;;;;;9.90;99.90;;;;;;5034684;28;20041;-83
2022/04/10 09:29:07;;;;;;;5.55;2.67;;;9.80;91.60;;;;;;5034500;28;19920;-77
2022/04/10 09:31:35;;;;;;;10.20;3.35;;;9.60;91.50;;;;;;5033916;28;20029;-79
2022/04/10 09:34:03;;;;;;;4.35;2.65;;;9.40;91.70;;;;;;5032943;28;20030;-80
2022/04/10 09:36:29;;;;;;;7.95;3.78;;;9.20;92.30;;;;;;5033767;28;20053;-75
2022/04/10 09:38:54;;;;;;;5.53;2.92;;;9.10;92.40;;;;;;5032811;28;20053;-73
2022/04/10 09:41:20;;;;;;;7.40;3.10;;;9.00;92.80;;;;;;5033829;28;20108;-76
2022/04/10 09:43:46;;;;;;;4.78;3.50;;;9.00;93.10;;;;;;5033047;28;20021;-76
2022/04/10 09:46:13;;;;;;;7.88;3.35;;;9.00;92.70;;;;;;5045656;28;20094;-78
2022/04/10 09:48:39;;;;;;;4.68;3.20;;;8.90;93.50;;;;;;5052997;28;20025;-81
2022/04/10 09:51:05;;;;;;;10.73;4.03;;;8.70;93.90;;;;;;5052609;28;20029;-80
2022/04/10 09:53:32;;;;;;;6.38;3.60;;;8.70;93.30;;;;;;5054693;28;20049;-81
2022/04/10 09:56:02;;;;;;;5.53;3.35;;;8.80;94.40;;;;;;5052461;28;20036;-77
2022/04/10 09:58:29;;;;;;;6.22;3.03;;;9.10;93.90;;;;;;5058331;28;20029;-75
2022/04/10 10:00:56;;;;;;;5.75;2.60;;;9.70;93.30;;;;;;5052453;28;20079;-81
2022/04/10 10:03:26;;;;;;;7.90;2.92;;;;;;;;;;5051874;28;20033;-85
2022/04/10 10:05:53;;;;;;;8.63;2.55;;;;;;;;;;5053055;28;20033;-90
2022/04/10 10:08:19;;;;;;;5.05;2.47;;;;;;;;;;5054358;28;20104;-86
2022/04/10 10:10:46;;;;;;;4.50;2.78;;;;;;;;;;5052649;28;20025;-81
2022/04/10 10:13:15;;;;;;;6.22;2.60;;;;;;;;;;5053385;28;20486;-84
2022/04/10 10:15:42;;;;;;;4.38;2.28;;;;;;;;;;5053785;28;20029;-77
2022/04/10 10:18:09;;;;;;;6.68;2.00;;;;;;;;;;5053179;28;20478;-86
2022/04/10 10:20:36;;;;;;;8.30;2.92;;;;;;;;;;5053508;28;20017;-84
2022/04/10 10:23:04;;;;;;;7.85;3.08;;;;;;;;;;5052218;28;20603;-84
2022/04/10 10:25:58;;;;;;;5.07;2.35;;;;;;;;;;5053165;28;20112;-83
2022/04/10 10:28:42;;;;;;;3.60;2.50;;;;;;;;;;5052423;28;20040;-82
2022/04/10 10:31:27;;;;;;;6.03;2.40;;;;;;;;;;5052767;28;20029;-71
2022/04/10 10:34:01;;;;;;;4.82;2.28;;;;;;;;;;5051217;28;20029;-72
2022/04/10 10:36:28;;;;;;;7.35;3.63;;;;;;;;;;5052799;28;20378;-72
2022/04/10 10:38:55;;;;;;;6.75;3.00;;;;;;;;;;5051296;28;20017;-71
2022/04/10 10:41:21;;;;;;;6.50;3.05;;;;;;;;;;5052513;28;20031;-72
2022/04/10 10:43:47;;;;;;;6.68;3.30;;;;;;;;;;5051494;28;20398;-72
2022/04/10 10:46:22;;;;;;;7.47;3.17;;;;;;;;;;5040058;28;20038;-72
2022/04/10 10:48:50;;;;;;;5.07;2.90;;;;;;;;;;5031265;28;20021;-71
2022/04/10 10:51:18;;;;;;;7.15;3.50;;;;;;;;;;5032736;28;20022;-71
2022/04/10 10:53:46;;;;;;;7.45;3.50;;;;;;;;;;5032034;28;20410;-70
2022/04/10 10:56:33;;;;;;;6.22;3.20;;;;;;;;;;5032205;28;20034;-72
2022/04/10 10:59:17;;;;;;;7.28;3.80;;;;;;;;;;5031414;28;20029;-72
2022/04/10 11:02:06;;;;;;;9.05;3.53;;;;;;;;;;5032113;28;20022;-69
2022/04/10 11:04:40;;;;;;;7.72;3.78;;;;;;;;;;5041268;28;20044;-71
2022/04/10 11:07:12;;;;;;;7.15;4.05;;;;;;;;;;5051070;28;20029;-71
2022/04/10 11:09:48;;;;;;;6.63;4.15;;;;;;;;;;5051813;28;20116;-72
2022/04/10 11:12:14;;;;;;;6.45;3.53;;;;;;;;;;5051988;28;20079;-70
2022/04/10 11:14:41;;;;;;;7.07;4.00;;;;;;;;;;5052014;28;20051;-71
2022/04/10 11:17:08;;;;;;;11.10;4.13;;;;;;;;;;5051007;28;20086;-71
2022/04/10 11:19:35;;;;;;;5.82;2.90;;;;;;;;;;5051555;28;20402;-71
2022/04/10 11:22:01;;;;;;;4.95;2.40;;;;;;;;;;5049603;28;20021;-72
2022/04/10 11:24:27;;;;;;;6.00;2.33;;;;;;;;;;5051870;28;20021;-72
2022/04/10 11:26:53;;;;;;;3.10;2.25;;;;;;;;;;5051038;28;20104;-73
2022/04/10 11:29:22;;;;;;;5.90;2.40;;;;;;;;;;5051595;28;20108;-71
2022/04/10 11:31:52;;;;;;;8.43;3.28;;;;;;;;;;5050600;28;20036;-69
2022/04/10 11:34:22;;;;;;;6.35;3.03;;;;;;;;;;5050407;28;20025;-72
2022/04/10 11:36:50;;;;;;;6.75;3.85;;;;;;;;;;5051096;28;20052;-69
2022/04/10 11:39:16;;;;;;;4.85;2.90;;;;;;;;;;5051557;28;20070;-71
2022/04/10 11:41:42;;;;;;;4.22;2.60;;;;;;;;;;5051462;28;20026;-70
2022/04/10 11:44:09;;;;;;;6.55;2.80;;;;;;;;;;5050927;28;20033;-71
2022/04/10 11:46:35;;;;;;;4.47;2.50;;;;;;;;;;5036982;28;20038;-71
2022/04/10 11:49:02;;;;;;;4.30;2.75;;;;;;;;;;5029580;28;20079;-70
2022/04/10 11:51:28;;;;;;;5.43;2.72;;;;;;;;;;5031177;28;20037;-70
2022/04/10 11:54:00;;;;;;;7.38;2.85;;;;;;;;;;5030860;28;20056;-70
2022/04/10 11:56:27;;;;;;;5.63;2.85;;;11.10;70.30;;;;;;5031582;28;20489;-72
2022/04/10 11:58:52;;;;;;;4.88;2.60;;;11.50;69.40;;;;;;5030563;28;20060;-72
2022/04/10 12:01:19;;;;;;;5.15;2.80;;;12.10;67.60;;;;;;5030957;28;20029;-71
2022/04/10 12:03:49;;;;;;;6.05;2.97;;;;;;;;;;5031314;28;20095;-71
2022/04/10 12:06:21;;;;;;;6.38;3.22;;;;;;;;;;5030990;28;20026;-71
2022/04/10 12:08:48;;;;;;;4.63;2.38;;;13.20;62.00;;;;;;5030531;28;20087;-69
2022/04/10 12:11:14;;;;;;;5.60;2.30;;;12.80;63.30;;;;;;5030722;28;20063;-74
2022/04/10 12:13:40;;;;;;;6.93;3.30;;;12.30;63.50;;;;;;5031924;28;20498;-78
2022/04/10 12:16:19;;;;;;;5.35;2.72;;;11.70;65.10;;;;;;5033664;28;20463;-73
2022/04/10 12:18:55;;;;;;;2.90;2.50;;;11.00;68.40;;;;;;5033756;28;20065;-72
2022/04/10 12:21:23;;;;;;;7.05;2.72;;;10.50;71.20;;;;;;5031993;28;20034;-72
2022/04/10 12:23:59;;;;;;;5.53;3.05;;;10.30;72.70;;;;;;5030719;28;20029;-69
2022/04/10 12:26:26;;;;;;;5.95;3.45;;;10.20;76.70;;;;;;5032781;28;20079;-72
2022/04/10 12:28:52;;;;;;;8.25;4.00;;;10.40;77.10;;;;;;5030579;28;20065;-70
2022/04/10 12:31:19;;;;;;;5.97;3.10;;;10.70;72.60;;;;;;5031244;28;20064;-73
2022/04/10 12:33:46;;;;;;;4.78;3.00;;;10.60;69.50;;;;;;5029431;28;20059;-74
2022/04/10 12:36:17;;;;;;;7.00;2.95;;;10.60;72.00;;;;;;5030119;28;20068;-72
2022/04/10 12:38:43;;;;;;;6.10;3.10;;;10.30;69.50;;;;;;5031280;28;20056;-73
2022/04/10 12:41:08;;;;;;;7.72;3.40;;;10.30;73.20;;;;;;5029920;28;20466;-73
2022/04/10 12:43:34;;;;;;;6.90;3.13;;;10.50;74.80;;;;;;5031181;28;20112;-72
2022/04/10 12:46:13;;;;;;;5.95;3.03;;;10.50;73.80;;;;;;5032560;28;20038;-74
2022/04/10 12:48:39;;;;;;;8.50;3.40;;;10.10;77.20;;;;;;5034660;28;20113;-72
2022/04/10 12:51:14;;;;;;;6.00;3.03;;;10.00;80.90;;;;;;5033557;28;20028;-74
2022/04/10 12:53:47;;;;;;;7.32;3.65;;;9.90;81.50;;;;;;5034686;28;20152;-71
2022/04/10 12:56:23;;;;;;;5.68;3.45;;;9.70;81.90;;;;;;5034014;28;20091;-70
2022/04/10 12:58:51;;;;;;;4.82;3.00;;;9.50;81.80;;;;;;5034073;28;20038;-68
2022/04/10 13:01:28;;;;;;;6.32;2.97;;;9.70;81.90;;;;;;5034373;28;20113;-74
2022/04/10 13:03:54;;;;;;;6.55;3.15;;;9.80;81.30;;;;;;5033301;28;20112;-75
2022/04/10 13:06:25;;;;;;;4.93;2.53;;;10.40;81.50;;;;;;5033902;28;20089;-77
2022/04/10 13:08:51;;;;;;;5.85;3.15;;;11.00;77.50;;;;;;5034274;28;20044;-74
2022/04/10 13:11:17;;;;;;;6.38;3.17;;;11.60;72.90;;;;;;5034310;28;20030;-72
2022/04/10 13:14:00;;;;;;;5.07;2.42;;;11.70;73.20;;;;;;5034172;28;20026;-71
2022/04/10 13:16:37;;;;;;;5.13;2.60;;;11.70;73.10;;;;;;5034106;28;20021;-71